Aviation Digital Data Service (ADDS)

Output produced by METARs form (0914 UTC 17 November 2018)
found at http://www.aviationweather.gov/metar/data/
 
EFHA 170850Z 26011KT 9999 FEW010 05/04 Q1030
EFHA 170820Z 26011KT 9999 FEW010 05/03 Q1030
EFHA 170750Z 25011KT CAVOK 04/03 Q1030
EFHA 170720Z 25012KT CAVOK 04/03 Q1029
EFHA 170650Z AUTO 24010KT CAVOK 04/03 Q1030
EFHA 170620Z AUTO 24010KT CAVOK 04/03 Q1030
EFHA 170550Z AUTO 25009KT CAVOK 04/04 Q1030
EFHA 170520Z AUTO 25011KT 9999 FEW009 05/04 Q1030
EFHA 170450Z AUTO 24011KT CAVOK 05/04 Q1030
EFHA 170420Z AUTO 25008KT 9999 FEW008 05/04 Q1030
EFHA 170350Z AUTO 24009KT 9999 SCT008 05/04 Q1030
EFHA 170320Z AUTO 24009KT 9999 BKN009 06/04 Q1030
EFHA 170250Z AUTO 24009KT 9999 BKN009 BKN145 06/04 Q1030
EFHA 170220Z AUTO 24007KT 200V270 9999 BKN009 BKN149 06/05 Q1030
EFHA 170150Z AUTO 24009KT 170V270 9999 BKN009 06/05 Q1030
EFHA 170120Z AUTO 23008KT 190V260 9999 OVC010 06/04 Q1030
EFHA 170050Z AUTO 24008KT 9999 OVC010 06/05 Q1031
EFHA 170020Z AUTO 24009KT 9999 OVC010 06/05 Q1031
EFHA 162350Z AUTO 25009KT 9999 OVC011 06/05 Q1031
EFHA 162320Z AUTO 24009KT 9999 OVC011 06/05 Q1031
EFHA 162250Z AUTO 25012KT 9999 OVC011 07/05 Q1031
EFHA 162220Z AUTO 26009KT 9999 OVC011 07/05 Q1031
EFHA 162150Z AUTO 25011KT 9999 OVC011 07/05 Q1031
EFHA 162120Z AUTO 25011KT 210V280 9999 OVC012 07/05 Q1031
EFHA 162050Z AUTO 25011KT 9999 OVC012 07/05 Q1031
EFHA 162020Z AUTO 24009KT 9999 OVC012 07/05 Q1031
EFHA 161950Z AUTO 24010G21KT 9999 OVC012 07/05 Q1030
EFHA 161920Z AUTO 24010KT 9999 OVC012 07/05 Q1031
EFHA 161850Z AUTO 24010KT 9999 OVC013 07/05 Q1031
EFHA 161820Z AUTO 24010KT 9999 OVC013 07/05 Q1030
EFHA 161750Z AUTO 24012KT 210V280 9999 OVC013 07/05 Q1030
EFHA 161720Z AUTO 24011KT 9999 OVC013 07/05 Q1030
EFHA 161650Z AUTO 24011KT 9999 OVC013 07/05 Q1030
EFHA 161620Z AUTO 23011KT 9999 OVC013 07/05 Q1030
EFHA 161550Z AUTO 22009KT 170V250 9999 OVC013 07/05 Q1030
EFHA 161520Z AUTO 23010KT 9999 BKN014 08/06 Q1030
EFHA 161450Z AUTO 23011KT 190V260 9999 BKN013 08/06 Q1030
EFHA 161420Z AUTO 22009KT 170V250 9999 BKN012 08/06 Q1030
EFHA 161350Z AUTO 23010KT 160V260 9999 BKN012 08/06 Q1029
EFHA 161320Z AUTO 22011KT 180V250 9999 BKN012 08/06 Q1029
EFHA 161250Z AUTO 21008KT 9999 BKN011 08/06 Q1029
EFHA 161220Z AUTO 21008KT 170V250 9999 BKN011 08/06 Q1030
EFHA 161150Z 19008KT 9999 BKN010 08/06 Q1029
EFHA 161120Z 20009KT 160V230 9999 BKN012 08/07 Q1030
EFHA 161050Z 21008KT 9999 SCT010 BKN200 08/07 Q1029
EFHA 161020Z 21010KT 170V240 9999 BKN012 08/07 Q1029
EFHA 160950Z 22008KT 160V250 9999 BKN010 08/07 Q1030
EFHA 160920Z 19009G20KT 150V230 9999 BKN008 08/08 Q1029
EFHA 160850Z 19009G20KT 150V230 9999 BKN005 08/08 Q1029
EFHA 160820Z 19008KT 160V230 9999 BKN005 08/08 Q1029
EFHA 160750Z 20009KT 7000 OVC005 08/08 Q1029
EFHA 160720Z 19007KT 140V220 7000 OVC005 08/08 Q1029
EFHA 160650Z 19007KT 150V220 4300 BR OVC005 08/08 Q1029
EFHA 160620Z 18006KT 140V210 5000 BR OVC007 08/08 Q1029
EFHA 160550Z AUTO 19006KT 3100 BR OVC005 08/07 Q1029
EFHA 160520Z AUTO 18007KT 150V220 3800 BR OVC004 08/07 Q1029
EFHA 160450Z AUTO 19009KT 4300 BR OVC005 08/07 Q1029
EFHA 160420Z AUTO 18008KT 3500 BR OVC004 07/07 Q1029
EFHA 160350Z AUTO 18008KT 3100 BR OVC004 07/07 Q1029
EFHA 160320Z AUTO 17007KT 3300 BR OVC004 07/07 Q1029
EFHA 160250Z AUTO 19007KT 3100 BR OVC004 07/07 Q1029
EFHA 160220Z AUTO 18009KT 7000 OVC005 07/07 Q1029
EFHA 160150Z AUTO 18008KT 4200 BR OVC004 07/07 Q1029
EFHA 160120Z AUTO 19008KT 3600 BR OVC005 07/07 Q1029
EFHA 160050Z AUTO 19008KT 3900 BR OVC004 07/07 Q1029
EFHA 160020Z AUTO 19007KT 4000 BR OVC004 07/07 Q1028
EFHA 152350Z AUTO 19008KT 3200 BR OVC004 07/07 Q1028
EFHA 152320Z AUTO 19008KT 160V230 7000 OVC004 07/07 Q1028
EFHA 152250Z AUTO 19008KT 7000 OVC004 07/07 Q1028
EFHA 152220Z AUTO 19007KT 9999 OVC004 07/07 Q1028
EFHA 152150Z AUTO 20008KT 8000 OVC004 07/07 Q1028
EFHA 152120Z AUTO 18008KT 4100 BR OVC005 07/07 Q1028